sensor_id;sensor_type;location;lat;lon;timestamp;P1;durP1;ratioP1;P2;durP2;ratioP2
45863;SDS011;31579;52.354;16.974;2023-05-17T00:04:11;18.50;;;12.90;;
45863;SDS011;31579;52.354;16.974;2023-05-17T00:09:11;18.50;;;12.90;;
45863;SDS011;31579;52.354;16.974;2023-05-17T00:14:11;18.50;;;12.40;;
45863;SDS011;31579;52.354;16.974;2023-05-17T00:19:11;18.50;;;12.40;;
45863;SDS011;31579;52.354;16.974;2023-05-17T00:28:08;18.50;;;12.40;;
45863;SDS011;31579;52.354;16.974;2023-05-17T00:33:08;18.50;;;12.40;;
45863;SDS011;31579;52.354;16.974;2023-05-17T00:38:08;19.00;;;12.20;;
45863;SDS011;31579;52.354;16.974;2023-05-17T00:44:15;16.10;;;9.60;;
45863;SDS011;31579;52.354;16.974;2023-05-17T00:49:15;16.10;;;9.60;;
45863;SDS011;31579;52.354;16.974;2023-05-17T00:54:15;12.80;;;7.00;;
45863;SDS011;31579;52.354;16.974;2023-05-17T00:59:15;12.80;;;7.00;;
45863;SDS011;31579;52.354;16.974;2023-05-17T01:04:15;10.10;;;5.30;;
45863;SDS011;31579;52.354;16.974;2023-05-17T01:05:00;10.10;;;5.30;;
45863;SDS011;31579;52.354;16.974;2023-05-17T01:09:58;10.10;;;5.30;;
45863;SDS011;31579;52.354;16.974;2023-05-17T01:25:25;7.60;;;3.80;;
45863;SDS011;31579;52.354;16.974;2023-05-17T01:29:58;7.60;;;3.80;;
45863;SDS011;31579;52.354;16.974;2023-05-17T01:35:02;9.10;;;3.00;;
45863;SDS011;31579;52.354;16.974;2023-05-17T01:39:58;9.10;;;3.00;;
45863;SDS011;31579;52.354;16.974;2023-05-17T01:42:34;9.10;;;3.00;;
45863;SDS011;31579;52.354;16.974;2023-05-17T01:52:37;5.90;;;2.40;;
45863;SDS011;31579;52.354;16.974;2023-05-17T01:57:32;7.00;;;2.10;;
45863;SDS011;31579;52.354;16.974;2023-05-17T02:02:31;7.00;;;2.10;;
45863;SDS011;31579;52.354;16.974;2023-05-17T02:07:31;6.60;;;2.10;;
45863;SDS011;31579;52.354;16.974;2023-05-17T02:12:33;6.60;;;2.10;;
45863;SDS011;31579;52.354;16.974;2023-05-17T02:17:31;8.10;;;2.20;;
45863;SDS011;31579;52.354;16.974;2023-05-17T02:22:31;8.10;;;2.20;;
45863;SDS011;31579;52.354;16.974;2023-05-17T02:27:31;7.10;;;2.10;;
45863;SDS011;31579;52.354;16.974;2023-05-17T02:32:31;7.10;;;2.10;;
45863;SDS011;31579;52.354;16.974;2023-05-17T02:37:04;8.70;;;2.20;;
45863;SDS011;31579;52.354;16.974;2023-05-17T02:42:03;8.70;;;2.20;;
45863;SDS011;31579;52.354;16.974;2023-05-17T02:47:03;8.20;;;2.10;;
45863;SDS011;31579;52.354;16.974;2023-05-17T02:52:03;8.20;;;2.10;;
45863;SDS011;31579;52.354;16.974;2023-05-17T02:57:03;5.80;;;2.10;;
45863;SDS011;31579;52.354;16.974;2023-05-17T03:02:03;5.80;;;2.10;;
45863;SDS011;31579;52.354;16.974;2023-05-17T03:07:05;5.90;;;2.30;;
45863;SDS011;31579;52.354;16.974;2023-05-17T03:12:03;5.90;;;2.30;;
45863;SDS011;31579;52.354;16.974;2023-05-17T03:17:03;5.80;;;1.80;;
45863;SDS011;31579;52.354;16.974;2023-05-17T03:22:03;5.80;;;1.80;;
45863;SDS011;31579;52.354;16.974;2023-05-17T03:27:03;6.00;;;2.30;;
45863;SDS011;31579;52.354;16.974;2023-05-17T03:32:03;6.00;;;2.30;;
45863;SDS011;31579;52.354;16.974;2023-05-17T03:37:03;4.60;;;2.10;;
45863;SDS011;31579;52.354;16.974;2023-05-17T03:42:03;4.60;;;2.10;;
45863;SDS011;31579;52.354;16.974;2023-05-17T03:47:03;5.60;;;2.10;;
45863;SDS011;31579;52.354;16.974;2023-05-17T03:52:03;5.60;;;2.10;;
45863;SDS011;31579;52.354;16.974;2023-05-17T03:57:03;5.80;;;2.10;;
45863;SDS011;31579;52.354;16.974;2023-05-17T04:02:03;5.80;;;2.10;;
45863;SDS011;31579;52.354;16.974;2023-05-17T04:07:03;5.40;;;2.10;;
45863;SDS011;31579;52.354;16.974;2023-05-17T04:12:03;5.40;;;2.10;;
45863;SDS011;31579;52.354;16.974;2023-05-17T04:17:03;5.90;;;1.90;;
45863;SDS011;31579;52.354;16.974;2023-05-17T04:22:03;5.90;;;1.90;;
45863;SDS011;31579;52.354;16.974;2023-05-17T04:27:03;5.80;;;2.10;;
45863;SDS011;31579;52.354;16.974;2023-05-17T04:32:03;5.80;;;2.10;;
45863;SDS011;31579;52.354;16.974;2023-05-17T04:37:03;6.80;;;2.20;;
45863;SDS011;31579;52.354;16.974;2023-05-17T04:42:05;6.80;;;2.20;;
45863;SDS011;31579;52.354;16.974;2023-05-17T04:47:03;7.10;;;2.30;;
45863;SDS011;31579;52.354;16.974;2023-05-17T04:52:03;7.10;;;2.30;;
45863;SDS011;31579;52.354;16.974;2023-05-17T04:57:03;8.30;;;2.60;;
45863;SDS011;31579;52.354;16.974;2023-05-17T05:02:03;8.30;;;2.60;;
45863;SDS011;31579;52.354;16.974;2023-05-17T05:07:03;7.70;;;2.30;;
45863;SDS011;31579;52.354;16.974;2023-05-17T05:12:03;7.70;;;2.30;;
45863;SDS011;31579;52.354;16.974;2023-05-17T05:17:03;9.20;;;2.70;;
45863;SDS011;31579;52.354;16.974;2023-05-17T05:22:03;9.20;;;2.70;;
45863;SDS011;31579;52.354;16.974;2023-05-17T05:27:03;6.90;;;2.50;;
45863;SDS011;31579;52.354;16.974;2023-05-17T05:32:03;6.90;;;2.50;;
45863;SDS011;31579;52.354;16.974;2023-05-17T05:37:03;8.30;;;2.80;;
45863;SDS011;31579;52.354;16.974;2023-05-17T05:42:03;8.30;;;2.80;;
45863;SDS011;31579;52.354;16.974;2023-05-17T05:47:03;6.60;;;2.40;;
45863;SDS011;31579;52.354;16.974;2023-05-17T05:49:17;6.60;;;2.40;;
45863;SDS011;31579;52.354;16.974;2023-05-17T05:54:15;9.40;;;3.20;;
45863;SDS011;31579;52.354;16.974;2023-05-17T05:59:15;9.40;;;3.20;;
45863;SDS011;31579;52.354;16.974;2023-05-17T06:04:15;10.60;;;3.50;;
45863;SDS011;31579;52.354;16.974;2023-05-17T06:09:15;10.60;;;3.50;;
45863;SDS011;31579;52.354;16.974;2023-05-17T06:14:15;9.40;;;3.30;;
45863;SDS011;31579;52.354;16.974;2023-05-17T06:19:18;9.40;;;3.30;;
45863;SDS011;31579;52.354;16.974;2023-05-17T06:24:15;10.00;;;3.40;;
45863;SDS011;31579;52.354;16.974;2023-05-17T06:29:15;10.00;;;3.40;;
45863;SDS011;31579;52.354;16.974;2023-05-17T06:34:15;10.30;;;3.70;;
45863;SDS011;31579;52.354;16.974;2023-05-17T06:39:15;10.30;;;3.70;;
45863;SDS011;31579;52.354;16.974;2023-05-17T06:44:15;11.50;;;3.70;;
45863;SDS011;31579;52.354;16.974;2023-05-17T06:49:15;11.50;;;3.70;;
45863;SDS011;31579;52.354;16.974;2023-05-17T06:54:15;11.00;;;3.40;;
45863;SDS011;31579;52.354;16.974;2023-05-17T06:57:33;11.00;;;3.40;;
45863;SDS011;31579;52.354;16.974;2023-05-17T07:02:31;11.00;;;3.40;;
45863;SDS011;31579;52.354;16.974;2023-05-17T07:07:31;12.50;;;3.60;;
45863;SDS011;31579;52.354;16.974;2023-05-17T07:12:31;12.50;;;3.60;;
45863;SDS011;31579;52.354;16.974;2023-05-17T07:17:31;12.30;;;3.70;;
45863;SDS011;31579;52.354;16.974;2023-05-17T07:22:31;12.30;;;3.70;;
45863;SDS011;31579;52.354;16.974;2023-05-17T07:27:32;13.10;;;3.50;;
45863;SDS011;31579;52.354;16.974;2023-05-17T07:32:31;13.10;;;3.50;;
45863;SDS011;31579;52.354;16.974;2023-05-17T07:37:31;10.50;;;3.30;;
45863;SDS011;31579;52.354;16.974;2023-05-17T07:42:31;10.50;;;3.30;;
45863;SDS011;31579;52.354;16.974;2023-05-17T07:47:31;11.30;;;3.90;;
45863;SDS011;31579;52.354;16.974;2023-05-17T07:52:31;11.30;;;3.90;;
45863;SDS011;31579;52.354;16.974;2023-05-17T07:57:31;11.10;;;3.30;;
45863;SDS011;31579;52.354;16.974;2023-05-17T08:02:31;11.10;;;3.30;;
45863;SDS011;31579;52.354;16.974;2023-05-17T08:07:31;12.30;;;3.40;;
45863;SDS011;31579;52.354;16.974;2023-05-17T08:12:31;12.30;;;3.40;;
45863;SDS011;31579;52.354;16.974;2023-05-17T08:17:31;8.70;;;3.00;;
45863;SDS011;31579;52.354;16.974;2023-05-17T08:22:31;8.70;;;3.00;;
45863;SDS011;31579;52.354;16.974;2023-05-17T08:27:31;11.70;;;3.30;;
45863;SDS011;31579;52.354;16.974;2023-05-17T08:32:31;11.70;;;3.30;;
45863;SDS011;31579;52.354;16.974;2023-05-17T08:33:41;11.70;;;3.30;;
45863;SDS011;31579;52.354;16.974;2023-05-17T08:38:39;9.20;;;2.80;;
45863;SDS011;31579;52.354;16.974;2023-05-17T08:43:39;9.20;;;2.80;;
45863;SDS011;31579;52.354;16.974;2023-05-17T08:48:39;6.70;;;2.70;;
45863;SDS011;31579;52.354;16.974;2023-05-17T08:53:39;6.70;;;2.70;;
45863;SDS011;31579;52.354;16.974;2023-05-17T08:58:39;9.90;;;2.60;;
45863;SDS011;31579;52.354;16.974;2023-05-17T09:03:45;9.90;;;2.60;;
45863;SDS011;31579;52.354;16.974;2023-05-17T09:08:39;6.70;;;2.60;;
45863;SDS011;31579;52.354;16.974;2023-05-17T09:13:39;6.70;;;2.60;;
45863;SDS011;31579;52.354;16.974;2023-05-17T09:18:39;6.20;;;2.20;;
45863;SDS011;31579;52.354;16.974;2023-05-17T09:23:39;6.20;;;2.20;;
45863;SDS011;31579;52.354;16.974;2023-05-17T09:28:40;8.40;;;2.50;;
45863;SDS011;31579;52.354;16.974;2023-05-17T09:38:39;9.80;;;2.30;;
45863;SDS011;31579;52.354;16.974;2023-05-17T09:40:02;9.80;;;2.30;;
45863;SDS011;31579;52.354;16.974;2023-05-17T09:45:00;6.10;;;2.10;;
45863;SDS011;31579;52.354;16.974;2023-05-17T09:50:00;6.10;;;2.10;;
45863;SDS011;31579;52.354;16.974;2023-05-17T09:55:00;8.60;;;2.60;;
45863;SDS011;31579;52.354;16.974;2023-05-17T10:00:01;8.60;;;2.60;;
45863;SDS011;31579;52.354;16.974;2023-05-17T10:05:00;7.90;;;2.60;;
45863;SDS011;31579;52.354;16.974;2023-05-17T10:10:05;7.90;;;2.60;;
45863;SDS011;31579;52.354;16.974;2023-05-17T10:15:00;6.80;;;2.40;;
45863;SDS011;31579;52.354;16.974;2023-05-17T10:20:00;6.80;;;2.40;;
45863;SDS011;31579;52.354;16.974;2023-05-17T10:25:03;9.10;;;2.60;;
45863;SDS011;31579;52.354;16.974;2023-05-17T10:29:22;9.10;;;2.60;;
45863;SDS011;31579;52.354;16.974;2023-05-17T10:34:19;5.90;;;2.40;;
45863;SDS011;31579;52.354;16.974;2023-05-17T10:39:20;5.90;;;2.40;;
45863;SDS011;31579;52.354;16.974;2023-05-17T10:40:14;5.90;;;2.40;;
45863;SDS011;31579;52.354;16.974;2023-05-17T10:45:13;10.90;;;3.40;;
45863;SDS011;31579;52.354;16.974;2023-05-17T10:50:13;10.90;;;3.40;;
45863;SDS011;31579;52.354;16.974;2023-05-17T10:55:16;9.80;;;3.50;;
45863;SDS011;31579;52.354;16.974;2023-05-17T11:00:18;9.80;;;3.50;;
45863;SDS011;31579;52.354;16.974;2023-05-17T11:10:21;13.00;;;4.20;;
45863;SDS011;31579;52.354;16.974;2023-05-17T11:20:30;35.70;;;12.00;;
45863;SDS011;31579;52.354;16.974;2023-05-17T11:25:30;6.60;;;2.60;;
45863;SDS011;31579;52.354;16.974;2023-05-17T11:35:17;8.90;;;3.00;;
45863;SDS011;31579;52.354;16.974;2023-05-17T11:39:11;8.90;;;3.00;;
45863;SDS011;31579;52.354;16.974;2023-05-17T11:44:07;9.10;;;2.70;;
45863;SDS011;31579;52.354;16.974;2023-05-17T11:49:09;9.10;;;2.70;;
45863;SDS011;31579;52.354;16.974;2023-05-17T11:54:08;6.70;;;2.40;;
45863;SDS011;31579;52.354;16.974;2023-05-17T11:59:08;6.70;;;2.40;;
45863;SDS011;31579;52.354;16.974;2023-05-17T12:04:07;9.50;;;2.60;;
45863;SDS011;31579;52.354;16.974;2023-05-17T12:09:13;9.50;;;2.60;;
45863;SDS011;31579;52.354;16.974;2023-05-17T12:14:07;5.90;;;2.10;;
45863;SDS011;31579;52.354;16.974;2023-05-17T12:19:15;5.90;;;2.10;;
45863;SDS011;31579;52.354;16.974;2023-05-17T12:24:09;9.40;;;2.10;;
45863;SDS011;31579;52.354;16.974;2023-05-17T12:29:07;9.40;;;2.10;;
45863;SDS011;31579;52.354;16.974;2023-05-17T12:34:07;6.70;;;2.00;;
45863;SDS011;31579;52.354;16.974;2023-05-17T12:35:59;6.70;;;2.00;;
45863;SDS011;31579;52.354;16.974;2023-05-17T12:40:59;6.70;;;2.00;;
45863;SDS011;31579;52.354;16.974;2023-05-17T12:51:04;6.90;;;2.00;;
45863;SDS011;31579;52.354;16.974;2023-05-17T12:55:57;7.20;;;2.10;;
45863;SDS011;31579;52.354;16.974;2023-05-17T13:05:58;10.90;;;2.30;;
45863;SDS011;31579;52.354;16.974;2023-05-17T13:15:57;6.80;;;1.80;;
45863;SDS011;31579;52.354;16.974;2023-05-17T13:20:57;6.80;;;1.80;;
45863;SDS011;31579;52.354;16.974;2023-05-17T13:25:57;8.80;;;2.00;;
45863;SDS011;31579;52.354;16.974;2023-05-17T13:30:57;8.80;;;2.00;;
45863;SDS011;31579;52.354;16.974;2023-05-17T13:35:57;7.20;;;2.00;;
45863;SDS011;31579;52.354;16.974;2023-05-17T13:40:06;7.20;;;2.00;;
45863;SDS011;31579;52.354;16.974;2023-05-17T13:45:04;6.90;;;2.20;;
45863;SDS011;31579;52.354;16.974;2023-05-17T13:50:04;6.90;;;2.20;;
45863;SDS011;31579;52.354;16.974;2023-05-17T13:55:04;6.90;;;2.00;;
45863;SDS011;31579;52.354;16.974;2023-05-17T14:00:04;6.90;;;2.00;;
45863;SDS011;31579;52.354;16.974;2023-05-17T14:00:36;6.90;;;2.00;;
45863;SDS011;31579;52.354;16.974;2023-05-17T14:05:35;6.20;;;1.80;;
45863;SDS011;31579;52.354;16.974;2023-05-17T14:10:35;6.20;;;1.80;;
45863;SDS011;31579;52.354;16.974;2023-05-17T14:15:35;8.90;;;2.40;;
45863;SDS011;31579;52.354;16.974;2023-05-17T14:20:35;8.90;;;2.40;;
45863;SDS011;31579;52.354;16.974;2023-05-17T14:25:35;6.70;;;2.00;;
45863;SDS011;31579;52.354;16.974;2023-05-17T14:30:35;6.70;;;2.00;;
45863;SDS011;31579;52.354;16.974;2023-05-17T14:35:34;8.90;;;2.30;;
45863;SDS011;31579;52.354;16.974;2023-05-17T14:40:34;8.90;;;2.30;;
45863;SDS011;31579;52.354;16.974;2023-05-17T14:45:34;10.70;;;2.20;;
45863;SDS011;31579;52.354;16.974;2023-05-17T14:46:42;10.70;;;2.20;;
45863;SDS011;31579;52.354;16.974;2023-05-17T14:51:03;10.70;;;2.20;;
45863;SDS011;31579;52.354;16.974;2023-05-17T14:56:02;7.50;;;2.50;;
45863;SDS011;31579;52.354;16.974;2023-05-17T15:01:02;7.50;;;2.50;;
45863;SDS011;31579;52.354;16.974;2023-05-17T15:06:06;7.00;;;1.90;;
45863;SDS011;31579;52.354;16.974;2023-05-17T15:11:02;7.00;;;1.90;;
45863;SDS011;31579;52.354;16.974;2023-05-17T15:16:02;9.60;;;2.20;;
45863;SDS011;31579;52.354;16.974;2023-05-17T15:21:02;9.60;;;2.20;;
45863;SDS011;31579;52.354;16.974;2023-05-17T15:26:02;9.60;;;2.30;;
45863;SDS011;31579;52.354;16.974;2023-05-17T15:31:03;9.60;;;2.30;;
45863;SDS011;31579;52.354;16.974;2023-05-17T15:36:02;8.90;;;2.40;;
45863;SDS011;31579;52.354;16.974;2023-05-17T15:41:03;8.90;;;2.40;;
45863;SDS011;31579;52.354;16.974;2023-05-17T15:46:02;10.20;;;2.30;;
45863;SDS011;31579;52.354;16.974;2023-05-17T15:51:02;10.20;;;2.30;;
45863;SDS011;31579;52.354;16.974;2023-05-17T15:56:02;7.50;;;1.70;;
45863;SDS011;31579;52.354;16.974;2023-05-17T16:01:02;7.50;;;1.70;;
45863;SDS011;31579;52.354;16.974;2023-05-17T16:06:02;7.80;;;1.80;;
45863;SDS011;31579;52.354;16.974;2023-05-17T16:11:02;7.80;;;1.80;;
45863;SDS011;31579;52.354;16.974;2023-05-17T16:16:02;10.70;;;2.10;;
45863;SDS011;31579;52.354;16.974;2023-05-17T16:21:02;10.70;;;2.10;;
45863;SDS011;31579;52.354;16.974;2023-05-17T16:26:02;7.60;;;1.90;;
45863;SDS011;31579;52.354;16.974;2023-05-17T16:31:02;7.60;;;1.90;;
45863;SDS011;31579;52.354;16.974;2023-05-17T16:36:02;9.20;;;2.10;;
45863;SDS011;31579;52.354;16.974;2023-05-17T16:41:05;9.20;;;2.10;;
45863;SDS011;31579;52.354;16.974;2023-05-17T16:46:02;9.70;;;2.10;;
45863;SDS011;31579;52.354;16.974;2023-05-17T16:51:02;9.70;;;2.10;;
45863;SDS011;31579;52.354;16.974;2023-05-17T16:56:05;10.80;;;2.00;;
45863;SDS011;31579;52.354;16.974;2023-05-17T17:01:02;10.80;;;2.00;;
45863;SDS011;31579;52.354;16.974;2023-05-17T17:06:02;8.40;;;1.90;;
45863;SDS011;31579;52.354;16.974;2023-05-17T17:11:02;8.40;;;1.90;;
45863;SDS011;31579;52.354;16.974;2023-05-17T17:16:02;8.50;;;1.80;;
45863;SDS011;31579;52.354;16.974;2023-05-17T17:21:02;8.50;;;1.80;;
45863;SDS011;31579;52.354;16.974;2023-05-17T17:26:02;8.50;;;2.10;;
45863;SDS011;31579;52.354;16.974;2023-05-17T17:31:02;8.50;;;2.10;;
45863;SDS011;31579;52.354;16.974;2023-05-17T17:36:02;7.90;;;2.00;;
45863;SDS011;31579;52.354;16.974;2023-05-17T17:41:02;7.90;;;2.00;;
45863;SDS011;31579;52.354;16.974;2023-05-17T17:46:02;6.80;;;1.90;;
45863;SDS011;31579;52.354;16.974;2023-05-17T17:51:02;6.80;;;1.90;;
45863;SDS011;31579;52.354;16.974;2023-05-17T17:56:02;7.20;;;1.70;;
45863;SDS011;31579;52.354;16.974;2023-05-17T18:01:06;7.20;;;1.70;;
45863;SDS011;31579;52.354;16.974;2023-05-17T18:05:21;9.90;;;2.50;;
45863;SDS011;31579;52.354;16.974;2023-05-17T18:10:30;9.90;;;2.50;;
45863;SDS011;31579;52.354;16.974;2023-05-17T18:15:29;9.00;;;2.20;;
45863;SDS011;31579;52.354;16.974;2023-05-17T18:20:28;9.00;;;2.20;;
45863;SDS011;31579;52.354;16.974;2023-05-17T18:25:28;13.20;;;2.20;;
45863;SDS011;31579;52.354;16.974;2023-05-17T18:30:28;13.20;;;2.20;;
45863;SDS011;31579;52.354;16.974;2023-05-17T18:35:28;9.80;;;2.40;;
45863;SDS011;31579;52.354;16.974;2023-05-17T18:40:29;9.80;;;2.40;;
45863;SDS011;31579;52.354;16.974;2023-05-17T18:45:28;8.60;;;2.50;;
45863;SDS011;31579;52.354;16.974;2023-05-17T18:48:02;8.60;;;2.50;;
45863;SDS011;31579;52.354;16.974;2023-05-17T18:53:00;8.60;;;2.50;;
45863;SDS011;31579;52.354;16.974;2023-05-17T18:58:00;8.40;;;1.90;;
45863;SDS011;31579;52.354;16.974;2023-05-17T19:03:00;8.40;;;1.90;;
45863;SDS011;31579;52.354;16.974;2023-05-17T19:08:00;8.00;;;2.60;;
45863;SDS011;31579;52.354;16.974;2023-05-17T19:13:00;8.00;;;2.60;;
45863;SDS011;31579;52.354;16.974;2023-05-17T19:18:02;12.70;;;3.00;;
45863;SDS011;31579;52.354;16.974;2023-05-17T19:23:00;12.70;;;3.00;;
45863;SDS011;31579;52.354;16.974;2023-05-17T19:28:00;12.60;;;2.90;;
45863;SDS011;31579;52.354;16.974;2023-05-17T19:33:00;12.60;;;2.90;;
45863;SDS011;31579;52.354;16.974;2023-05-17T19:38:00;13.90;;;2.40;;
45863;SDS011;31579;52.354;16.974;2023-05-17T19:43:00;13.90;;;2.40;;
45863;SDS011;31579;52.354;16.974;2023-05-17T19:48:00;8.70;;;2.20;;
45863;SDS011;31579;52.354;16.974;2023-05-17T19:53:00;8.70;;;2.20;;
45863;SDS011;31579;52.354;16.974;2023-05-17T19:58:00;10.20;;;2.00;;
45863;SDS011;31579;52.354;16.974;2023-05-17T20:03:00;10.20;;;2.00;;
45863;SDS011;31579;52.354;16.974;2023-05-17T20:08:00;8.50;;;2.10;;
45863;SDS011;31579;52.354;16.974;2023-05-17T20:13:00;8.50;;;2.10;;
45863;SDS011;31579;52.354;16.974;2023-05-17T20:18:00;10.70;;;2.30;;
45863;SDS011;31579;52.354;16.974;2023-05-17T20:21:06;10.70;;;2.30;;
45863;SDS011;31579;52.354;16.974;2023-05-17T20:26:04;8.50;;;1.70;;
45863;SDS011;31579;52.354;16.974;2023-05-17T20:31:04;8.50;;;1.70;;
45863;SDS011;31579;52.354;16.974;2023-05-17T20:36:04;10.60;;;2.70;;
45863;SDS011;31579;52.354;16.974;2023-05-17T20:41:04;10.60;;;2.70;;
45863;SDS011;31579;52.354;16.974;2023-05-17T20:46:04;9.40;;;2.40;;
45863;SDS011;31579;52.354;16.974;2023-05-17T20:50:05;9.40;;;2.40;;
45863;SDS011;31579;52.354;16.974;2023-05-17T20:55:03;8.70;;;2.40;;
45863;SDS011;31579;52.354;16.974;2023-05-17T21:00:03;8.70;;;2.40;;
45863;SDS011;31579;52.354;16.974;2023-05-17T21:05:03;9.40;;;2.80;;
45863;SDS011;31579;52.354;16.974;2023-05-17T21:10:03;9.40;;;2.80;;
45863;SDS011;31579;52.354;16.974;2023-05-17T21:15:04;8.80;;;2.50;;
45863;SDS011;31579;52.354;16.974;2023-05-17T21:20:06;8.80;;;2.50;;
45863;SDS011;31579;52.354;16.974;2023-05-17T21:25:03;10.60;;;2.60;;
45863;SDS011;31579;52.354;16.974;2023-05-17T21:30:03;10.60;;;2.60;;
45863;SDS011;31579;52.354;16.974;2023-05-17T21:35:03;9.70;;;2.00;;
45863;SDS011;31579;52.354;16.974;2023-05-17T21:40:03;9.70;;;2.00;;
45863;SDS011;31579;52.354;16.974;2023-05-17T21:45:03;9.00;;;2.20;;
45863;SDS011;31579;52.354;16.974;2023-05-17T21:50:03;9.00;;;2.20;;
45863;SDS011;31579;52.354;16.974;2023-05-17T21:55:03;7.80;;;2.00;;
45863;SDS011;31579;52.354;16.974;2023-05-17T21:58:20;7.80;;;2.00;;
45863;SDS011;31579;52.354;16.974;2023-05-17T22:03:19;6.60;;;1.90;;
45863;SDS011;31579;52.354;16.974;2023-05-17T22:08:19;6.60;;;1.90;;
45863;SDS011;31579;52.354;16.974;2023-05-17T22:13:19;6.70;;;1.90;;
45863;SDS011;31579;52.354;16.974;2023-05-17T22:18:19;6.70;;;1.90;;
45863;SDS011;31579;52.354;16.974;2023-05-17T22:23:19;6.40;;;1.80;;
45863;SDS011;31579;52.354;16.974;2023-05-17T22:28:20;6.40;;;1.80;;
45863;SDS011;31579;52.354;16.974;2023-05-17T22:33:19;7.90;;;2.00;;
45863;SDS011;31579;52.354;16.974;2023-05-17T22:38:19;7.90;;;2.00;;
45863;SDS011;31579;52.354;16.974;2023-05-17T22:43:19;10.30;;;2.00;;
45863;SDS011;31579;52.354;16.974;2023-05-17T22:48:19;10.30;;;2.00;;
45863;SDS011;31579;52.354;16.974;2023-05-17T22:53:19;5.70;;;1.60;;
45863;SDS011;31579;52.354;16.974;2023-05-17T22:56:05;5.70;;;1.60;;
45863;SDS011;31579;52.354;16.974;2023-05-17T23:00:25;5.70;;;1.60;;
45863;SDS011;31579;52.354;16.974;2023-05-17T23:05:23;5.90;;;1.40;;
45863;SDS011;31579;52.354;16.974;2023-05-17T23:10:23;5.90;;;1.40;;
45863;SDS011;31579;52.354;16.974;2023-05-17T23:15:24;10.00;;;2.30;;
45863;SDS011;31579;52.354;16.974;2023-05-17T23:20:23;10.00;;;2.30;;
45863;SDS011;31579;52.354;16.974;2023-05-17T23:25:23;7.10;;;2.10;;
45863;SDS011;31579;52.354;16.974;2023-05-17T23:30:24;7.10;;;2.10;;
45863;SDS011;31579;52.354;16.974;2023-05-17T23:35:23;8.70;;;1.90;;
45863;SDS011;31579;52.354;16.974;2023-05-17T23:40:23;8.70;;;1.90;;
45863;SDS011;31579;52.354;16.974;2023-05-17T23:41:13;8.70;;;1.90;;
45863;SDS011;31579;52.354;16.974;2023-05-17T23:46:12;8.40;;;1.80;;
45863;SDS011;31579;52.354;16.974;2023-05-17T23:51:12;8.40;;;1.80;;
45863;SDS011;31579;52.354;16.974;2023-05-17T23:56:12;8.20;;;2.00;;
